PWSweather.com
Personal Weather Stations
Station Observations
BLACKWELL
Blackwell, AlfretonGB DE55

BlackwellAlfretonGB DE55

Lat: 53.12076, Lon: -1.354978

Elevation: 410

Station Type: Vantage Pro

High Low Average
Temperature 45.0°F7.2°C 39.4°F4.1°C 42.3°F5.7°C
Dew Point 42.3°F5.7°C 35.6°F2.0°C 39.0°F3.9°C
Winds 7.0 mph 11.3 kmh Calm Calm 2.0 mph SW3.2 kmh SW
Wind Gusts 17.0 mph27.4 kmh -- 7.0 mph11.3 kmh
Humidity 92% 81% 88%
Pressure 29.63 in1003.4 mb 29.01 in982.4 mb -
Precipitation 0.07 in1.8 mm - -
Hour Temp Dew Point Humidity Winds Wind Gusts Pressure Precip Precip Rate Daily Precip Total
12:44 AM 41.5°F5.3°C 39.0°F3.9°C 91% Calm Calm 3.0 mph4.8 kmh 29.01 in982.4 mb 0.00 in0.0 mm 0.00 in0.0 mm 0.00 in0.0 mm
01:45 AM 40.3°F4.6°C 38.1°F3.4°C 92% 1.0 mph SW1.6 kmh SW 5.0 mph8.0 kmh 29.02 in982.7 mb 0.00 in0.0 mm 0.00 in0.0 mm 0.00 in0.0 mm
02:44 AM 39.4°F4.1°C 37.2°F2.9°C 92% 1.0 mph SW1.6 kmh SW 3.0 mph4.8 kmh 29.02 in982.7 mb 0.00 in0.0 mm 0.00 in0.0 mm 0.00 in0.0 mm
03:44 AM 39.4°F4.1°C 37.0°F2.8°C 91% 1.0 mph WSW1.6 kmh WSW 4.0 mph6.4 kmh 29.02 in982.7 mb 0.00 in0.0 mm 0.00 in0.0 mm 0.00 in0.0 mm
04:44 AM 39.9°F4.4°C 36.9°F2.7°C 89% 2.0 mph WSW3.2 kmh WSW 8.0 mph12.9 kmh 29.02 in982.7 mb 0.00 in0.0 mm 0.00 in0.0 mm 0.00 in0.0 mm
05:44 AM 39.9°F4.4°C 37.0°F2.8°C 89% 3.0 mph WSW4.8 kmh WSW 8.0 mph12.9 kmh 29.02 in982.7 mb 0.00 in0.0 mm 0.00 in0.0 mm 0.00 in0.0 mm
06:44 AM 40.5°F4.7°C 37.2°F2.9°C 88% 4.0 mph WSW6.4 kmh WSW 11.0 mph17.7 kmh 29.03 in983.1 mb 0.00 in0.0 mm 0.00 in0.0 mm 0.00 in0.0 mm
07:44 AM 41.5°F5.3°C 37.6°F3.1°C 86% 4.0 mph WSW6.4 kmh WSW 10.0 mph16.1 kmh 29.04 in983.4 mb 0.00 in0.0 mm 0.00 in0.0 mm 0.00 in0.0 mm
08:44 AM 44.1°F6.7°C 38.8°F3.8°C 82% 5.0 mph WSW8.0 kmh WSW 12.0 mph19.3 kmh 29.05 in983.7 mb 0.00 in0.0 mm 0.00 in0.0 mm 0.00 in0.0 mm
09:44 AM 43.9°F6.6°C 38.5°F3.6°C 81% 6.0 mph WSW9.7 kmh WSW 17.0 mph27.4 kmh 29.04 in983.4 mb 0.00 in0.0 mm 0.00 in0.0 mm 0.00 in0.0 mm
10:44 AM 42.3°F5.7°C 39.6°F4.2°C 90% 7.0 mph WSW11.3 kmh WSW 14.0 mph22.5 kmh 29.05 in983.7 mb 0.01 in0.3 mm 0.00 in0.0 mm 0.01 in0.3 mm
11:44 AM 42.4°F5.8°C 40.3°F4.6°C 92% 5.0 mph WSW8.0 kmh WSW 14.0 mph22.5 kmh 29.06 in984.1 mb 0.02 in0.5 mm 0.00 in0.0 mm 0.03 in0.8 mm
12:44 PM 42.6°F5.9°C 40.1°F4.5°C 91% 4.0 mph SW6.4 kmh SW 12.0 mph19.3 kmh 29.07 in984.4 mb 0.02 in0.5 mm 0.00 in0.0 mm 0.05 in1.3 mm
01:44 PM 42.4°F5.8°C 40.1°F4.5°C 91% 3.0 mph SW4.8 kmh SW 8.0 mph12.9 kmh 29.09 in985.1 mb 0.02 in0.5 mm 0.00 in0.0 mm 0.06 in1.5 mm
02:44 PM 43.9°F6.6°C 41.4°F5.2°C 91% 1.0 mph SW1.6 kmh SW 6.0 mph9.7 kmh 29.14 in986.8 mb 0.00 in0.0 mm 0.00 in0.0 mm 0.06 in1.5 mm
03:44 PM 44.4°F6.9°C 41.7°F5.4°C 90% 1.0 mph SW1.6 kmh SW 6.0 mph9.7 kmh 29.19 in988.5 mb 0.01 in0.3 mm 0.00 in0.0 mm 0.07 in1.8 mm
04:44 PM 45.0°F7.2°C 42.3°F5.7°C 90% 1.0 mph SW1.6 kmh SW 5.0 mph8.0 kmh 29.24 in990.2 mb 0.00 in0.0 mm 0.00 in0.0 mm 0.07 in1.8 mm
05:44 PM 44.8°F7.1°C 41.9°F5.5°C 90% 1.0 mph SW1.6 kmh SW 5.0 mph8.0 kmh 29.30 in992.2 mb 0.00 in0.0 mm 0.00 in0.0 mm 0.07 in1.8 mm
06:44 PM 44.8°F7.1°C 41.4°F5.2°C 88% 1.0 mph SW1.6 kmh SW 5.0 mph8.0 kmh 29.37 in994.6 mb 0.00 in0.0 mm 0.00 in0.0 mm 0.07 in1.8 mm
07:44 PM 44.8°F7.1°C 40.8°F4.9°C 86% Calm Calm 5.0 mph8.0 kmh 29.42 in996.3 mb 0.00 in0.0 mm 0.00 in0.0 mm 0.07 in1.8 mm
08:44 PM 44.6°F7.0°C 39.7°F4.3°C 83% 1.0 mph SW1.6 kmh SW 5.0 mph8.0 kmh 29.48 in998.3 mb 0.00 in0.0 mm 0.00 in0.0 mm 0.07 in1.8 mm
09:44 PM 42.6°F5.9°C 37.8°F3.2°C 83% Calm Calm 5.0 mph8.0 kmh 29.54 in1000.3 mb 0.00 in0.0 mm 0.00 in0.0 mm 0.07 in1.8 mm
10:44 PM 40.1°F4.5°C 35.6°F2.0°C 84% Calm Calm -- 29.60 in1002.4 mb 0.00 in0.0 mm 0.00 in0.0 mm 0.07 in1.8 mm
11:44 PM 39.4°F4.1°C 36.7°F2.6°C 90% Calm Calm 1.0 mph1.6 kmh 29.63 in1003.4 mb 0.00 in0.0 mm 0.00 in0.0 mm 0.07 in1.8 mm